Time;durP1;ratioP1;P1;durP2;ratioP2;P2;SDS_P1;SDS_P2;PMS_P1;PMS_P2;Temp;Humidity;BMP_temperature;BMP_pressure;BME280_temperature;BME280_humidity;BME280_pressure;Samples;Min_cycle;Max_cycle;Signal;HPM_P1;HPM_P2
2021/06/04 00:02:07;;;;;;;8.80;6.10;;;;;;;15.53;74.13;97622.66;4985584;28;20489;-71
2021/06/04 00:04:33;;;;;;;7.03;6.15;;;;;;;15.47;74.49;97624.22;4984175;28;20501;-71
2021/06/04 00:06:59;;;;;;;8.50;6.80;;;;;;;14.84;75.00;97549.13;4985017;28;20041;-71
2021/06/04 00:09:25;;;;;;;7.68;6.13;;;;;;;15.33;75.79;97623.28;4983922;28;20034;-69
2021/06/04 00:11:56;;;;;;;6.43;5.80;;;;;;;15.23;76.66;97622.00;4985351;28;20041;-71
2021/06/04 00:14:43;;;;;;;6.82;6.18;;;;;;;15.26;76.64;97623.22;4985495;28;20030;-71
2021/06/04 00:17:22;;;;;;;6.78;6.05;;;;;;;15.21;76.71;97616.00;4984551;28;20050;-70
2021/06/04 00:19:48;;;;;;;8.32;7.15;;;;;;;15.13;77.72;97600.38;4985033;28;20491;-69
2021/06/04 00:22:26;;;;;;;8.63;5.95;;;;;;;15.09;77.67;97605.16;4983390;28;20038;-70
2021/06/04 00:24:56;;;;;;;7.18;5.88;;;;;;;15.16;76.51;97594.84;4985264;28;20129;-71
2021/06/04 00:27:23;;;;;;;9.88;6.30;;;;;;;15.38;75.54;97615.34;4983655;28;20031;-70
2021/06/04 00:29:49;;;;;;;7.95;5.82;;;;;;;15.35;76.10;97618.91;4279593;28;20004336;-70
2021/06/04 00:32:19;;;;;;;6.63;6.00;;;;;;;15.26;76.44;97626.81;4963318;28;20575;-69
2021/06/04 00:34:44;;;;;;;6.55;5.95;;;;;;;15.27;76.38;97620.03;4963960;28;20085;-70
2021/06/04 00:37:11;;;;;;;6.28;5.68;;;;;;;15.27;76.28;97639.56;4965465;28;20038;-68
2021/06/04 00:39:39;;;;;;;8.45;6.68;;;;;;;14.69;76.52;97535.44;4964217;28;20507;-70
2021/06/04 00:42:07;;;;;;;6.93;6.32;;;;;;;15.16;76.54;97610.75;4965172;28;20042;-69
2021/06/04 00:44:34;;;;;;;7.55;6.85;;;;;;;14.63;77.72;97553.72;4964508;28;20178;-69
2021/06/04 00:47:00;;;;;;;8.50;6.75;;;;;;;15.05;77.61;97609.88;4963407;28;20047;-70
2021/06/04 00:49:26;;;;;;;6.90;6.30;;;;;;;14.92;76.68;97556.38;4965161;28;20089;-70
2021/06/04 00:52:16;;;;;;;6.80;6.20;;;;;;;15.15;77.01;97611.97;4964760;28;20035;-70
2021/06/04 00:54:43;;;;;;;9.57;6.40;;;;;;;15.09;77.34;97610.72;4964020;28;20040;-68
2021/06/04 00:57:10;;;;;;;5.85;5.35;;;;;;;15.18;77.00;97613.97;4944153;29;20069;-69
2021/06/04 00:59:39;;;;;;;9.52;6.43;;;;;;;15.13;76.88;97614.34;4945794;28;20399;-71
2021/06/04 01:02:16;;;;;;;8.80;7.20;;;;;;;15.14;76.97;97616.75;4946060;28;20039;-71
2021/06/04 01:04:42;;;;;;;8.45;6.88;;;;;;;14.99;78.50;97605.84;4945898;28;20036;-70
2021/06/04 01:07:22;;;;;;;7.55;6.28;;;;;;;14.90;79.47;97613.75;4943874;29;20169;-69
2021/06/04 01:10:25;;;;;;;8.35;6.75;;;;;;;15.00;78.77;97613.06;4945605;28;20155;-68
2021/06/04 01:13:14;;;;;;;7.20;6.60;;;;;;;14.92;78.90;97616.97;4945779;29;20130;-69
2021/06/04 01:15:51;;;;;;;10.02;6.90;;;;;;;14.71;80.06;97611.16;4948551;28;20050;-70
2021/06/04 01:18:37;;;;;;;10.30;6.65;;;;;;;14.67;79.79;97613.91;4945376;28;20105;-71
2021/06/04 01:21:13;;;;;;;8.65;6.38;;;;;;;14.12;79.80;97516.53;4945764;28;20070;-70
2021/06/04 01:24:10;;;;;;;8.85;7.15;;;;;;;14.44;80.87;97612.47;4943327;28;20047;-67
2021/06/04 01:27:01;;;;;;;9.10;5.90;;;;;;;14.18;80.64;97554.03;4945459;28;20058;-70
2021/06/04 01:29:36;;;;;;;8.88;6.05;;;;;;;14.71;79.78;97611.16;4945568;28;20065;-70
2021/06/04 01:32:09;;;;;;;8.23;6.80;;;;;;;14.55;80.08;97614.19;4945407;28;20035;-71
2021/06/04 01:34:40;;;;;;;9.70;6.40;;;;;;;14.54;80.17;97615.38;4945479;28;20057;-71
2021/06/04 01:37:11;;;;;;;7.50;6.05;;;;;;;14.29;81.69;97600.34;4943903;29;20207;-70
2021/06/04 01:39:42;;;;;;;7.85;6.43;;;;;;;14.11;81.19;97576.22;4945918;28;20043;-69
2021/06/04 01:42:12;;;;;;;8.27;6.43;;;;;;;14.39;80.88;97607.22;4960377;28;20134;-71
2021/06/04 01:44:40;;;;;;;9.27;6.50;;;;;;;14.48;81.70;97630.06;4949439;28;20077;-70
2021/06/04 01:47:09;;;;;;;6.97;6.35;;;;;;;14.27;82.18;97607.50;4949317;28;20043;-69
2021/06/04 01:49:41;;;;;;;12.48;7.22;;;;;;;14.00;82.64;97561.38;4949363;28;20027;-69
2021/06/04 01:52:19;;;;;;;9.05;6.50;;;;;;;14.23;83.28;97640.06;4963730;28;20043;-69
2021/06/04 01:55:14;;;;;;;9.63;7.45;;;;;;;14.37;82.47;97623.56;4950122;28;20062;-71
2021/06/04 01:57:48;;;;;;;7.32;6.57;;;;;;;14.00;81.47;97547.44;4968661;28;20170;-69
2021/06/04 02:00:31;;;;;;;7.75;6.95;;;;;;;14.17;82.00;97602.56;4968162;28;20447;-70
2021/06/04 02:02:57;;;;;;;7.32;6.50;;;;;;;14.29;82.17;97633.78;4966604;28;20026;-71
2021/06/04 02:05:28;;;;;;;8.52;6.53;;;;;;;14.38;80.32;97631.53;4967943;28;20387;-70
2021/06/04 02:07:54;;;;;;;7.60;6.78;;;;;;;14.36;80.57;97630.28;4968214;28;20042;-70
2021/06/04 02:10:33;;;;;;;10.10;6.80;;;;;;;13.90;81.26;97578.75;4967689;28;20054;-69
2021/06/04 02:12:58;;;;;;;9.77;6.53;;;;;;;14.06;82.19;97590.50;4967810;28;20034;-70
2021/06/04 02:15:34;;;;;;;16.13;7.57;;;;;;;14.32;82.50;97630.25;4967662;28;20410;-70
2021/06/04 02:18:03;;;;;;;11.23;7.03;;;;;;;14.40;81.63;97633.94;4966510;28;20063;-70
2021/06/04 02:20:38;;;;;;;10.85;7.30;;;;;;;14.33;82.97;97642.22;4967835;28;20869;-71
2021/06/04 02:23:25;;;;;;;10.02;7.57;;;;;;;14.40;83.54;97637.50;4966389;28;20540;-71
2021/06/04 02:26:23;;;;;;;10.55;6.60;;;;;;;13.85;82.93;97551.25;4965917;28;20078;-71
2021/06/04 02:28:57;;;;;;;11.45;7.03;;;;;;;14.35;82.87;97629.47;4967646;28;20034;-70
2021/06/04 02:31:45;;;;;;;11.98;9.55;;;;;;;14.41;83.56;97646.69;4967621;28;20065;-68
2021/06/04 02:34:16;;;;;;;11.93;7.50;;;;;;;14.47;83.11;97645.16;4967696;28;20421;-70
2021/06/04 02:36:47;;;;;;;11.75;8.23;;;;;;;13.97;83.37;97570.50;4967681;28;20039;-68
2021/06/04 02:39:12;;;;;;;9.43;7.47;;;;;;;14.55;82.72;97646.84;4968126;28;20044;-70
2021/06/04 02:41:55;;;;;;;11.45;7.10;;;;;;;14.34;82.58;97627.06;4965606;28;20078;-70
2021/06/04 02:44:24;;;;;;;8.02;6.57;;;;;;;14.60;81.33;97654.88;4966006;28;20041;-71
2021/06/04 02:47:06;;;;;;;8.85;6.78;;;;;;;14.63;81.36;97648.53;4965769;28;20043;-71
2021/06/04 02:49:34;;;;;;;7.35;6.63;;;;;;;14.64;80.41;97662.09;4967828;28;20035;-70
2021/06/04 02:52:24;;;;;;;7.47;6.68;;;;;;;14.58;81.78;97651.66;4965641;28;20105;-70
2021/06/04 02:54:51;;;;;;;12.15;6.65;;;;;;;14.20;80.56;97596.22;4963831;28;20042;-70
2021/06/04 02:57:21;;;;;;;8.20;6.82;;;;;;;13.98;81.06;97577.66;4946145;29;20039;-72
2021/06/04 02:59:48;;;;;;;7.20;6.35;;;;;;;14.25;82.15;97643.31;4946911;28;20031;-71
2021/06/04 03:02:22;;;;;;;8.82;6.47;;;;;;;14.39;81.74;97660.19;4946376;28;20162;-70
2021/06/04 03:04:50;;;;;;;9.60;6.35;;;;;;;14.55;81.92;97658.00;4946291;29;20589;-72
2021/06/04 03:07:23;;;;;;;11.13;6.57;;;;;;;14.54;81.44;97662.75;4947785;28;20067;-71
2021/06/04 03:09:48;;;;;;;8.18;6.70;;;;;;;14.06;81.87;97587.72;4946250;28;20491;-70
2021/06/04 03:12:18;;;;;;;9.10;7.20;;;;;;;14.59;82.14;97665.22;4945691;28;20047;-70
2021/06/04 03:14:47;;;;;;;8.95;6.70;;;;;;;14.69;82.14;97670.13;4947891;28;20043;-72
2021/06/04 03:17:13;;;;;;;9.38;6.93;;;;;;;14.61;82.41;97650.88;4947771;28;20066;-71
2021/06/04 03:19:39;;;;;;;11.15;6.88;;;;;;;14.88;81.12;97666.31;4947582;28;20038;-73
2021/06/04 03:22:13;;;;;;;9.52;8.60;;;;;;;14.77;81.70;97645.88;4947441;28;20099;-72
2021/06/04 03:24:40;;;;;;;;;;;;;;;14.94;81.42;97665.59;4946509;29;20027;-73
2021/06/04 03:27:07;;;;;;;9.40;8.45;;;;;;;15.00;81.25;97668.84;4947288;28;19927;-71
2021/06/04 03:29:33;;;;;;;10.82;8.27;;;;;;;14.67;82.52;97627.03;4947562;28;20031;-72
2021/06/04 03:32:04;;;;;;;12.20;8.25;;;;;;;14.85;81.95;97650.34;4945518;28;20069;-72
2021/06/04 03:34:29;;;;;;;11.40;8.60;;;;;;;15.03;82.20;97662.50;4947615;28;20060;-71
2021/06/04 03:36:58;;;;;;;9.85;7.97;;;;;;;14.87;82.01;97671.09;4945871;29;20549;-73
2021/06/04 03:39:27;;;;;;;8.80;7.72;;;;;;;15.02;81.64;97666.47;4947125;28;20027;-71
2021/06/04 03:42:05;;;;;;;9.80;7.80;;;;;;;15.11;81.37;97672.53;4945596;29;20135;-74
2021/06/04 03:44:34;;;;;;;7.85;7.13;;;;;;;14.39;80.89;97557.06;4947136;28;20050;-73
2021/06/04 03:47:00;;;;;;;9.52;8.57;;;;;;;15.05;82.12;97672.06;4945346;29;20403;-73
2021/06/04 03:49:26;;;;;;;8.10;7.30;;;;;;;15.13;82.49;97658.97;4945565;29;20034;-73
2021/06/04 03:51:54;;;;;;;10.30;7.10;;;;;;;15.12;82.21;97671.34;4946578;28;20593;-73
2021/06/04 03:54:25;;;;;;;7.80;7.00;;;;;;;15.28;81.31;97674.69;4947149;28;20546;-72
2021/06/04 03:56:51;;;;;;;9.32;7.25;;;;;;;14.62;81.12;97568.84;4962237;28;20050;-69
2021/06/04 03:59:17;;;;;;;7.70;6.68;;;;;;;14.81;81.25;97582.59;4966383;28;20043;-72
2021/06/04 04:01:46;;;;;;;7.07;6.40;;;;;;;15.48;80.01;97672.47;4965946;28;20042;-72
2021/06/04 04:04:12;;;;;;;7.88;7.00;;;;;;;15.50;79.72;97670.91;4964483;28;20042;-71
2021/06/04 04:06:38;;;;;;;7.75;7.05;;;;;;;15.44;80.36;97671.66;4964850;28;20039;-71
2021/06/04 04:09:05;;;;;;;9.13;6.97;;;;;;;15.26;79.04;97640.75;4966051;28;20037;-70
2021/06/04 04:11:31;;;;;;;10.57;7.47;;;;;;;15.45;80.35;97679.63;4965709;28;20034;-72
2021/06/04 04:13:57;;;;;;;10.80;7.55;;;;;;;15.37;80.45;97655.59;4965955;28;20035;-71
2021/06/04 04:16:22;;;;;;;8.43;7.32;;;;;;;15.59;81.68;97674.16;4965257;28;20503;-71
2021/06/04 04:18:48;;;;;;;11.43;7.95;;;;;;;15.02;80.48;97582.75;4965050;28;20038;-73
2021/06/04 04:21:15;;;;;;;13.52;8.88;;;;;;;15.71;79.65;97676.63;4959968;28;20037;-59
2021/06/04 04:23:40;;;;;;;9.20;7.40;;;;;;;15.69;79.66;97681.84;4965113;28;20043;-63
2021/06/04 04:26:07;;;;;;;10.43;8.43;;;;;;;15.02;82.80;97683.19;4964090;28;20439;-61
2021/06/04 04:28:36;;;;;;;9.98;8.35;;;;;;;14.79;85.47;97680.59;4965204;28;20039;-56
2021/06/04 04:31:04;;;;;;;9.70;7.97;;;;;;;14.49;84.66;97626.06;4964619;28;20070;-59
2021/06/04 04:33:30;;;;;;;10.40;7.90;;;;;;;15.25;84.15;97681.03;4965160;28;20042;-59
2021/06/04 04:35:55;;;;;;;12.05;9.02;;;;;;;15.16;83.64;97624.72;4966429;28;20037;-68
2021/06/04 04:38:21;;;;;;;9.90;7.75;;;;;;;15.24;84.31;97640.34;4964661;28;20470;-58
2021/06/04 04:40:51;;;;;;;10.15;8.23;;;;;;;15.75;83.59;97694.25;4964960;28;20042;-59
2021/06/04 04:43:17;;;;;;;15.13;9.00;;;;;;;15.70;82.73;97643.50;4965231;28;20031;-71
2021/06/04 04:45:43;;;;;;;12.15;8.90;;;;;;;15.71;82.47;97696.19;4979594;28;20498;-59
2021/06/04 04:48:09;;;;;;;12.90;8.50;;;;;;;15.42;85.40;97697.16;4965575;28;20038;-59
2021/06/04 04:50:36;;;;;;;17.67;9.43;;;;;;;15.93;83.70;97688.78;4964451;28;20057;-59
2021/06/04 04:53:03;;;;;;;17.27;9.20;;;;;;;15.98;81.37;97692.00;4964826;28;20074;-59
2021/06/04 04:55:30;;;;;;;9.90;8.57;;;;;;;15.69;83.20;97690.22;4959133;28;20153;-59
2021/06/04 04:57:57;;;;;;;11.40;8.75;;;;;;;16.07;81.81;97684.09;4945533;29;20474;-60
2021/06/04 05:00:26;;;;;;;10.25;8.88;;;;;;;16.48;79.31;97681.91;4945199;29;20052;-70
2021/06/04 05:02:53;;;;;;;13.05;8.63;;;;;;;16.52;77.69;97661.16;4946049;29;20030;-63
2021/06/04 05:05:20;;;;;;;8.45;7.63;;;;;;;17.01;75.96;97698.88;4943927;29;20039;-66
2021/06/04 05:07:45;;;;;;;8.35;7.53;;;;;;;16.52;77.68;97655.56;4945974;29;20039;-75
2021/06/04 05:10:12;;;;;;;14.23;7.32;;;;;;;16.58;79.54;97720.31;4960028;28;20034;-61
2021/06/04 05:12:38;;;;;;;11.18;7.95;;;;;;;16.63;79.19;97705.94;4944709;29;20035;-60
2021/06/04 05:15:07;;;;;;;9.95;9.00;;;;;;;16.83;79.06;97712.00;4957565;28;20073;-60
2021/06/04 05:17:32;;;;;;;14.07;8.70;;;;;;;16.78;79.23;97712.38;4979408;28;20097;-70
2021/06/04 05:19:58;;;;;;;11.23;8.10;;;;;;;16.60;79.16;97679.56;4963428;28;20049;-72
2021/06/04 05:22:24;;;;;;;11.63;9.15;;;;;;;15.82;79.95;97638.41;4962883;28;20485;-67
2021/06/04 05:24:50;;;;;;;11.35;9.15;;;;;;;15.73;82.17;97635.16;4963168;28;20504;-68
2021/06/04 05:27:15;;;;;;;13.90;8.95;;;;;;;16.37;80.07;97714.59;4964651;28;20042;-71
2021/06/04 05:29:41;;;;;;;11.40;9.00;;;;;;;16.96;78.47;97718.84;4964941;28;20085;-70
2021/06/04 05:32:07;;;;;;;10.25;9.20;;;;;;;17.15;77.04;97721.31;4964454;28;20552;-69
2021/06/04 05:34:33;;;;;;;16.08;8.93;;;;;;;17.44;75.72;97722.94;4964774;28;20097;-70
2021/06/04 05:36:58;;;;;;;9.18;8.35;;;;;;;17.66;75.23;97719.78;4964879;28;20046;-64
2021/06/04 05:39:26;;;;;;;10.90;8.98;;;;;;;17.98;73.38;97719.75;4979454;28;20527;-60
2021/06/04 05:41:55;;;;;;;14.75;8.88;;;;;;;18.21;72.60;97722.16;4964719;28;20599;-60
2021/06/04 05:44:24;;;;;;;10.50;9.48;;;;;;;18.34;71.76;97726.91;4964926;28;20442;-70
2021/06/04 05:46:54;;;;;;;11.18;8.82;;;;;;;18.61;70.53;97719.66;4962560;28;20043;-63
2021/06/04 05:49:21;;;;;;;11.90;8.88;;;;;;;18.70;70.46;97722.81;4964606;28;20031;-71
2021/06/04 05:51:47;;;;;;;10.98;9.32;;;;;;;18.77;69.33;97717.19;4962675;28;20492;-71
2021/06/04 05:54:13;;;;;;;12.93;10.13;;;;;;;18.42;68.84;97663.19;4964641;28;20090;-60
2021/06/04 05:56:38;;;;;;;11.32;9.10;;;;;;;18.33;68.17;97635.56;4952466;28;20043;-61
2021/06/04 05:59:04;;;;;;;13.90;8.48;;;;;;;19.23;66.90;97723.34;4945305;28;20054;-71
2021/06/04 06:01:33;;;;;;;9.35;8.23;;;;;;;19.39;65.66;97720.84;4944673;28;20126;-69
2021/06/04 06:03:59;;;;;;;9.88;7.75;;;;;;;19.57;63.91;97714.31;4943490;29;20569;-69
2021/06/04 06:06:25;;;;;;;12.63;8.30;;;;;;;19.49;63.26;97683.44;4951243;28;20106;-58
2021/06/04 06:08:50;;;;;;;8.75;6.95;;;;;;;19.92;61.30;97719.63;4962471;28;20066;-59
2021/06/04 06:11:22;;;;;;;8.57;6.85;;;;;;;19.99;61.30;97713.97;4962537;28;20051;-60
2021/06/04 06:13:47;;;;;;;10.35;7.40;;;;;;;19.86;60.75;97670.69;4964065;28;20551;-60
2021/06/04 06:16:13;;;;;;;7.53;6.80;;;;;;;20.41;60.66;97716.38;4962492;28;20185;-59
2021/06/04 06:18:38;;;;;;;10.65;6.85;;;;;;;19.45;58.81;97508.47;4964063;28;20135;-60
2021/06/04 06:21:04;;;;;;;9.50;6.35;;;;;;;20.64;58.86;97716.53;4964467;28;20057;-67
2021/06/04 06:23:32;;;;;;;10.57;6.93;;;;;;;20.62;58.54;97679.53;4963737;28;20054;-69
2021/06/04 06:26:02;;;;;;;8.75;7.32;;;;;;;20.79;56.89;97658.81;4963866;28;20049;-70
2021/06/04 06:28:33;;;;;;;8.77;7.18;;;;;;;21.16;57.22;97715.09;4964377;28;20419;-61
2021/06/04 06:30:59;;;;;;;7.30;6.70;;;;;;;21.15;55.44;97626.13;4953673;28;20181;-58
2021/06/04 06:33:25;;;;;;;6.88;6.18;;;;;;;22.05;53.86;97724.56;4948255;28;20046;-72
2021/06/04 06:35:55;;;;;;;8.75;7.05;;;;;;;21.63;54.04;97626.53;4962500;28;20047;-71
2021/06/04 06:38:22;;;;;;;29.20;22.02;;;;;;;22.49;52.38;97712.88;4948163;28;20111;-59
2021/06/04 06:40:48;;;;;;;8.50;6.82;;;;;;;23.06;50.26;97706.88;4948238;28;20118;-78
2021/06/04 06:43:15;;;;;;;7.32;6.72;;;;;;;23.12;49.46;97710.81;4948183;28;20225;-58
2021/06/04 06:45:41;;;;;;;7.00;6.50;;;;;;;22.88;49.79;97716.97;4951121;28;20498;-61
2021/06/04 06:48:08;;;;;;;7.90;6.13;;;;;;;22.88;48.33;97717.78;4958991;28;20027;-62
2021/06/04 06:50:35;;;;;;;6.75;6.07;;;;;;;22.87;46.61;97707.72;4965541;28;20039;-76
2021/06/04 06:53:06;;;;;;;6.15;5.63;;;;;;;23.08;47.43;97709.31;4965466;28;20038;-73
2021/06/04 06:55:33;;;;;;;9.63;6.40;;;;;;;23.28;47.43;97710.91;4965430;28;20062;-75
2021/06/04 06:57:59;;;;;;;7.30;6.60;;;;;;;23.40;47.02;97712.22;4967789;28;20030;-69
2021/06/04 07:00:30;;;;;;;12.32;6.28;;;;;;;21.68;46.50;97555.56;4964744;28;20058;-70
2021/06/04 07:02:56;;;;;;;8.80;6.57;;;;;;;24.13;45.95;97706.03;4967103;28;20047;-60
2021/06/04 07:05:22;;;;;;;11.05;7.68;;;;;;;24.09;46.33;97671.38;4967188;28;20038;-60
2021/06/04 07:07:48;;;;;;;8.90;7.53;;;;;;;23.23;48.02;97704.91;4967398;28;20034;-77
2021/06/04 07:10:17;;;;;;;8.20;6.82;;;;;;;22.58;48.82;97657.88;4966656;28;20031;-58
2021/06/04 07:12:42;;;;;;;8.30;7.47;;;;;;;23.09;48.70;97708.06;4966750;28;20110;-79
2021/06/04 07:15:14;;;;;;;8.25;7.28;;;;;;;22.28;49.45;97713.28;4966354;28;20026;-75
2021/06/04 07:17:40;;;;;;;12.20;7.40;;;;;;;22.07;49.85;97715.69;4958707;28;20569;-80
2021/06/04 07:20:09;;;;;;;8.25;7.10;;;;;;;21.59;49.99;97679.38;4965076;28;20481;-59
2021/06/04 07:22:35;;;;;;;7.97;6.90;;;;;;;21.96;48.89;97713.03;4963099;28;20622;-58
2021/06/04 07:25:08;;;;;;;10.07;6.30;;;;;;;21.23;50.37;97720.59;4964926;28;20046;-60
2021/06/04 07:27:34;;;;;;;10.45;6.30;;;;;;;20.32;53.37;97721.69;4964120;28;20030;-73
2021/06/04 07:30:00;;;;;;;7.15;6.38;;;;;;;19.97;54.06;97727.63;4963362;28;20053;-74
2021/06/04 07:32:26;;;;;;;8.23;5.97;;;;;;;19.42;51.01;97635.75;4964175;28;20065;-72
2021/06/04 07:34:52;;;;;;;9.63;7.00;;;;;;;20.26;53.12;97703.69;4966646;28;20141;-59
2021/06/04 07:37:18;;;;;;;12.43;9.52;;;;;;;20.02;55.83;97724.38;4964120;28;20555;-58
2021/06/04 07:39:44;;;;;;;13.55;11.77;;;;;;;20.38;54.91;97728.47;4965578;28;20027;-72
2021/06/04 07:42:13;;;;;;;13.55;11.60;;;;;;;19.71;54.17;97658.00;4962617;28;20039;-63
2021/06/04 07:44:39;;;;;;;37.53;27.67;;;;;;;20.21;52.61;97718.19;4965519;28;20030;-61
2021/06/04 07:47:05;;;;;;;24.00;16.73;;;;;;;20.03;52.03;97787.88;4965883;28;20113;-68
2021/06/04 07:49:30;;;;;;;51.63;28.40;;;;;;;20.56;51.80;97717.81;4965191;28;20557;-69
2021/06/04 07:51:58;;;;;;;19.08;13.98;;;;;;;20.50;50.24;97643.50;4966096;28;20169;-59
2021/06/04 07:54:27;;;;;;;18.88;14.57;;;;;;;20.85;49.39;97641.00;4966146;28;20039;-67
2021/06/04 07:56:54;;;;;;;14.25;11.30;;;;;;;21.16;50.53;97719.91;4965869;28;20046;-69
2021/06/04 07:59:21;;;;;;;17.35;13.65;;;;;;;20.44;52.04;97636.72;4965305;28;20047;-61
2021/06/04 08:01:46;;;;;;;12.20;10.98;;;;;;;21.36;52.08;97724.44;4962989;28;20430;-69
2021/06/04 08:04:12;;;;;;;13.10;10.63;;;;;;;21.15;51.01;97769.81;4946975;28;20039;-72
2021/06/04 08:06:39;;;;;;;13.63;9.88;;;;;;;20.04;52.38;97615.06;4946550;28;20051;-75
2021/06/04 08:09:06;;;;;;;11.05;9.68;;;;;;;20.68;53.01;97739.78;4959736;28;20031;-72
2021/06/04 08:11:35;;;;;;;11.68;9.38;;;;;;;20.76;52.40;97735.69;4966058;28;20452;-59
2021/06/04 08:14:06;;;;;;;13.63;8.73;;;;;;;20.77;53.07;97740.13;4965023;28;20033;-58
2021/06/04 08:16:32;;;;;;;12.40;9.25;;;;;;;20.48;54.35;97741.66;4965413;28;20082;-69
2021/06/04 08:18:58;;;;;;;8.90;7.30;;;;;;;19.08;56.00;97609.47;4964670;28;20055;-68
2021/06/04 08:21:28;;;;;;;6.90;6.07;;;;;;;19.29;53.45;97584.06;4965148;28;20113;-63
2021/06/04 08:23:54;;;;;;;11.77;8.02;;;;;;;20.63;53.32;97748.69;4965152;28;20410;-62
2021/06/04 08:26:27;;;;;;;9.52;8.20;;;;;;;20.63;53.19;97737.44;4956106;28;20057;-60
2021/06/04 08:28:53;;;;;;;11.20;9.18;;;;;;;20.24;54.70;97704.09;4952954;28;20504;-69
2021/06/04 08:31:21;;;;;;;12.23;8.23;;;;;;;20.17;55.12;97748.41;4961176;28;20047;-61
2021/06/04 08:33:47;;;;;;;14.68;8.00;;;;;;;20.37;55.67;97749.41;4963208;28;20119;-60
2021/06/04 08:36:17;;;;;;;10.07;7.53;;;;;;;20.18;54.83;97752.78;4964599;28;20043;-60
2021/06/04 08:38:43;;;;;;;10.82;8.20;;;;;;;19.73;56.13;97745.53;4961961;28;20333;-60
2021/06/04 08:41:31;;;;;;;12.18;9.60;;;;;;;19.68;57.17;97746.75;4964459;28;20030;-66
2021/06/04 08:44:14;;;;;;;20.52;12.48;;;;;;;19.59;58.08;97752.03;4964364;28;20061;-61
2021/06/04 08:46:45;;;;;;;11.70;8.65;;;;;;;18.63;57.88;97644.28;4963498;28;20130;-68
2021/06/04 08:49:26;;;;;;;9.98;8.98;;;;;;;18.92;59.53;97746.00;4963861;28;20747;-59
2021/06/04 08:52:12;;;;;;;11.50;8.00;;;;;;;18.78;58.73;97758.06;4961195;28;20486;-69
2021/06/04 08:55:12;;;;;;;34.25;19.73;;;;;;;19.27;58.23;97757.84;4964700;28;20035;-59
2021/06/04 08:57:51;;;;;;;10.40;9.30;;;;;;;19.58;57.18;97749.66;4964397;28;20058;-67
2021/06/04 09:00:23;;;;;;;10.10;7.80;;;;;;;19.27;57.40;97740.16;4963984;28;20065;-68
2021/06/04 09:02:53;;;;;;;7.28;6.65;;;;;;;19.77;56.30;97757.53;4963546;28;20066;-67
2021/06/04 09:05:41;;;;;;;21.63;12.10;;;;;;;19.45;57.07;97760.56;4964794;28;20081;-61
2021/06/04 09:08:11;;;;;;;10.30;6.72;;;;;;;19.10;56.15;97677.28;4963510;28;20137;-60
2021/06/04 09:10:49;;;;;;;10.95;7.70;;;;;;;19.79;56.06;97761.53;4964871;28;20035;-65
2021/06/04 09:13:23;;;;;;;8.38;5.95;;;;;;;19.55;54.78;97754.88;4965525;28;20030;-61
2021/06/04 09:15:54;;;;;;;14.30;7.22;;;;;;;19.45;54.87;97755.75;4964610;28;20047;-61
2021/06/04 09:18:32;;;;;;;15.98;5.55;;;;;;;19.12;54.45;97652.41;4964655;28;20418;-62
2021/06/04 09:21:02;;;;;;;9.25;6.10;;;;;;;20.31;53.86;97756.69;4962714;28;20042;-69
2021/06/04 09:23:37;;;;;;;6.50;5.85;;;;;;;20.81;52.99;97749.31;4964498;28;20446;-61
2021/06/04 09:26:06;;;;;;;7.30;5.00;;;;;;;19.35;50.94;97461.59;4963587;28;20056;-78
2021/06/04 09:28:46;;;;;;;10.50;5.60;;;;;;;19.45;49.67;97404.50;4964372;28;20042;-61
2021/06/04 09:31:20;;;;;;;5.72;4.72;;;;;;;21.83;48.75;97748.72;4964174;28;20042;-68
2021/06/04 09:33:49;;;;;;;10.63;6.45;;;;;;;21.92;48.40;97749.00;4957451;28;20537;-60
2021/06/04 09:36:17;;;;;;;7.68;5.47;;;;;;;21.90;48.50;97748.63;4954053;28;20035;-59
2021/06/04 09:39:13;;;;;;;6.53;5.93;;;;;;;21.92;48.93;97751.81;4961975;28;20035;-68
2021/06/04 09:41:44;;;;;;;6.65;4.80;;;;;;;21.85;48.47;97723.72;4964430;28;20441;-63
2021/06/04 09:44:22;;;;;;;5.88;5.28;;;;;;;21.81;49.07;97753.22;4959224;28;20034;-73
2021/06/04 09:47:09;;;;;;;5.43;5.03;;;;;;;21.81;49.80;97748.38;4964178;28;20461;-66
2021/06/04 09:49:41;;;;;;;5.88;4.95;;;;;;;21.65;48.88;97756.66;4962963;28;20521;-67
2021/06/04 09:52:19;;;;;;;5.80;5.30;;;;;;;21.69;48.46;97754.56;4958515;28;20134;-68
2021/06/04 09:54:45;;;;;;;11.65;6.03;;;;;;;21.61;48.82;97758.72;4949533;28;20430;-66
2021/06/04 09:57:13;;;;;;;8.77;5.85;;;;;;;19.70;51.67;97476.44;4962878;28;20047;-68
2021/06/04 09:59:39;;;;;;;7.35;6.15;;;;;;;21.40;50.13;97747.75;4964446;28;20038;-56
2021/06/04 10:02:30;;;;;;;6.28;5.72;;;;;;;21.44;50.28;97748.50;4962537;28;20039;-59
2021/06/04 10:05:16;;;;;;;5.90;5.38;;;;;;;21.59;49.35;97747.06;4946436;28;20038;-66
2021/06/04 10:07:43;;;;;;;6.50;6.00;;;;;;;21.31;49.68;97726.97;4947255;28;20584;-59
2021/06/04 10:10:23;;;;;;;7.40;5.30;;;;;;;21.62;49.08;97754.69;4946762;28;20035;-66
2021/06/04 10:12:55;;;;;;;7.78;5.78;;;;;;;21.84;48.43;97747.53;4948717;28;20059;-67
2021/06/04 10:15:50;;;;;;;7.93;5.57;;;;;;;22.12;48.36;97761.16;4960335;28;20047;-61
2021/06/04 10:18:39;;;;;;;8.00;6.13;;;;;;;22.42;47.83;97757.41;4966209;28;20050;-60
2021/06/04 10:21:16;;;;;;;6.18;5.55;;;;;;;22.62;46.87;97749.00;4967956;28;20090;-68
2021/06/04 10:23:53;;;;;;;8.73;5.90;;;;;;;23.18;45.59;97722.41;4967783;28;20031;-69
2021/06/04 10:26:29;;;;;;;7.20;6.47;;;;;;;23.07;45.61;97747.25;4967580;28;20062;-68
2021/06/04 10:29:03;;;;;;;7.68;6.13;;;;;;;23.07;45.22;97747.25;4967597;28;20506;-68
2021/06/04 10:31:43;;;;;;;;;;;;;;;23.62;44.34;97744.44;4967843;28;20039;-67
2021/06/04 10:34:27;;;;;;;9.20;6.95;;;;;;;24.19;43.65;97732.56;4982301;28;19969;-60
2021/06/04 10:36:57;;;;;;;8.40;7.38;;;;;;;25.06;41.71;97735.84;4965834;28;20047;-67
2021/06/04 10:39:46;;;;;;;12.77;7.28;;;;;;;25.34;40.65;97733.44;4967699;28;20043;-61
2021/06/04 10:42:42;;;;;;;11.82;9.80;;;;;;;24.93;40.27;97726.50;4967354;28;20042;-60
2021/06/04 10:45:18;;;;;;;7.35;6.82;;;;;;;25.34;38.66;97727.78;4967411;28;20460;-68
2021/06/04 10:48:06;;;;;;;7.28;6.75;;;;;;;25.78;38.22;97735.28;4967472;28;20045;-68
2021/06/04 10:50:38;;;;;;;8.23;6.93;;;;;;;24.90;39.58;97669.91;4966563;28;20046;-61
2021/06/04 10:53:14;;;;;;;10.05;6.95;;;;;;;25.10;38.84;97662.78;4967568;28;20042;-60
2021/06/04 10:56:10;;;;;;;7.35;6.72;;;;;;;25.31;38.45;97724.56;4966569;28;20045;-61
2021/06/04 10:59:00;;;;;;;7.43;6.70;;;;;;;25.09;38.94;97728.47;4961577;28;20097;-61
2021/06/04 11:01:49;;;;;;;7.28;6.57;;;;;;;25.03;39.41;97714.06;4966665;28;20089;-59
2021/06/04 11:04:51;;;;;;;6.72;6.10;;;;;;;24.48;40.60;97722.09;4961529;28;20034;-65
2021/06/04 11:07:28;;;;;;;7.30;6.60;;;;;;;25.00;40.79;97717.81;4956549;28;20039;-68
2021/06/04 11:10:04;;;;;;;9.20;6.47;;;;;;;25.25;39.28;97657.47;4965475;28;21029;-68
2021/06/04 11:12:54;;;;;;;7.28;6.38;;;;;;;25.61;38.44;97691.25;4966555;28;20536;-61
2021/06/04 11:15:31;;;;;;;9.52;7.10;;;;;;;25.77;38.93;97682.59;4965830;28;20035;-59
2021/06/04 11:18:03;;;;;;;7.25;6.60;;;;;;;26.30;38.55;97707.19;4966186;28;20046;-57
2021/06/04 11:20:47;;;;;;;11.07;7.03;;;;;;;26.52;38.05;97716.56;4965014;28;20045;-72
2021/06/04 11:23:21;;;;;;;7.18;6.53;;;;;;;25.92;39.03;97706.44;4966058;28;20484;-68
2021/06/04 11:26:04;;;;;;;6.95;6.35;;;;;;;25.70;39.73;97699.88;4964306;28;20305;-69
2021/06/04 11:29:08;;;;;;;6.97;6.38;;;;;;;25.66;39.34;97702.00;4962571;28;20061;-59
2021/06/04 11:31:39;;;;;;;6.97;6.38;;;;;;;25.54;39.37;97697.13;4957453;28;20592;-58
2021/06/04 11:34:15;;;;;;;6.70;6.10;;;;;;;25.64;39.22;97701.69;4965567;28;20376;-70
2021/06/04 11:36:45;;;;;;;6.15;5.65;;;;;;;25.46;38.59;97695.78;4963973;28;20089;-69
2021/06/04 11:39:28;;;;;;;6.95;5.78;;;;;;;25.32;38.58;97703.44;4966278;28;20960;-63
2021/06/04 11:41:57;;;;;;;6.17;5.57;;;;;;;24.67;39.68;97639.00;4965191;28;20129;-59
2021/06/04 11:44:34;;;;;;;6.70;6.13;;;;;;;25.51;40.45;97710.22;4954748;28;20035;-67
2021/06/04 11:47:12;;;;;;;6.43;5.82;;;;;;;25.74;40.40;97703.38;4963982;28;20090;-65
2021/06/04 11:49:55;;;;;;;6.75;6.18;;;;;;;25.36;40.33;97708.22;4963952;28;20026;-57
2021/06/04 11:52:27;;;;;;;6.95;6.35;;;;;;;23.72;40.24;97460.47;4956180;28;20063;-61